Terminal Aerodrome Forecast
Issued by NWS

Home | Current Version | Previous Version | Text Only | Print | Product List | Glossary On
Versions: 1 2 3 4 5 6 7 8 9 10 11 12 13 14
000
FTUS41 KPHI 042321
TAFPNE
TAF
KPNE 042321Z 0500/0524 22006KT P6SM SCT050
     FM051200 26006KT P6SM SCT050
     FM051900 29006KT P6SM BKN050
      TEMPO 0520/0524 -SHRA OVC035=

USA.gov is the U.S. government's official web portal to all federal, state and local government web resources and services.